createdAt,value
2017-02-09T00:00:10.268Z,0
2017-02-09T00:01:23.376Z,0
2017-02-09T00:02:36.686Z,0
2017-02-09T00:03:49.796Z,0
2017-02-09T00:05:02.905Z,0
2017-02-09T00:06:16.015Z,0
2017-02-09T00:07:29.124Z,0
2017-02-09T00:08:56.246Z,0
2017-02-09T00:10:08.808Z,0
2017-02-09T00:11:21.919Z,0
2017-02-09T00:12:35.034Z,0
2017-02-09T00:13:48.348Z,0
2017-02-09T00:15:01.466Z,0
2017-02-09T00:16:28.587Z,0
2017-02-09T00:17:41.699Z,0
2017-02-09T00:18:54.808Z,0
2017-02-09T00:20:07.919Z,0
2017-02-09T00:21:21.031Z,0
2017-02-09T00:22:34.143Z,0
2017-02-09T00:23:47.452Z,0
2017-02-09T00:25:00.562Z,0
2017-02-09T00:26:13.111Z,0
2017-02-09T00:27:26.221Z,0
2017-02-09T00:28:39.333Z,0
2017-02-09T00:29:51.524Z,0
2017-02-09T00:31:04.635Z,0
2017-02-09T00:32:17.746Z,0
2017-02-09T00:33:30.858Z,0
2017-02-09T00:34:43.408Z,0
2017-02-09T00:35:56.521Z,0
2017-02-09T00:37:37.651Z,0
2017-02-09T00:38:50.202Z,0
2017-02-09T00:40:03.514Z,0
2017-02-09T00:41:16.626Z,0
2017-02-09T00:42:29.739Z,0
2017-02-09T00:43:42.849Z,0
2017-02-09T00:44:55.697Z,0
2017-02-09T00:46:08.809Z,0
2017-02-09T00:47:35.934Z,0
2017-02-09T00:48:49.045Z,0
2017-02-09T00:50:02.016Z,0
2017-02-09T00:51:15.263Z,0
2017-02-09T00:52:28.510Z,0
2017-02-09T00:53:41.759Z,0
2017-02-09T00:54:55.041Z,0
2017-02-09T00:56:08.492Z,0
2017-02-09T00:57:21.175Z,0
2017-02-09T00:58:34.422Z,0
2017-02-09T00:59:47.673Z,0
2017-02-09T01:01:01.119Z,0
2017-02-09T01:02:14.366Z,0
2017-02-09T01:03:27.051Z,0
2017-02-09T01:04:40.333Z,0
2017-02-09T01:05:53.582Z,0
2017-02-09T01:07:07.031Z,0
2017-02-09T01:08:33.696Z,0
2017-02-09T01:09:46.945Z,0
2017-02-09T01:11:00.195Z,0
2017-02-09T01:12:13.083Z,0
2017-02-09T01:13:26.332Z,0
2017-02-09T01:14:39.583Z,0
2017-02-09T01:15:52.839Z,0
2017-02-09T01:17:06.288Z,0
2017-02-09T01:18:19.543Z,0
2017-02-09T01:21:00.025Z,0
2017-02-09T01:22:13.474Z,0
2017-02-09T01:23:26.726Z,0
2017-02-09T01:24:39.982Z,0
2017-02-09T01:25:53.237Z,0
2017-02-09T01:27:05.923Z,0
2017-02-09T01:28:33.155Z,0
2017-02-09T01:29:46.431Z,0
2017-02-09T01:30:59.685Z,0
2017-02-09T01:32:12.368Z,0
2017-02-09T01:33:25.621Z,0
2017-02-09T01:34:38.880Z,0
2017-02-09T01:35:51.576Z,0
2017-02-09T01:37:04.834Z,0
2017-02-09T01:38:18.296Z,0
2017-02-09T01:39:44.964Z,0
2017-02-09T01:40:58.225Z,0
2017-02-09T01:42:10.363Z,0
2017-02-09T01:43:23.815Z,0
2017-02-09T01:44:37.084Z,0
2017-02-09T01:45:50.392Z,0
2017-02-09T01:47:03.710Z,0
2017-02-09T01:48:16.189Z,0
2017-02-09T01:49:29.484Z,0
2017-02-09T01:50:42.732Z,0
2017-02-09T01:51:55.411Z,0
2017-02-09T01:53:08.659Z,0
2017-02-09T01:54:21.936Z,0
2017-02-09T01:55:49.168Z,0
2017-02-09T01:57:01.850Z,0
2017-02-09T01:58:15.103Z,0
2017-02-09T01:59:28.551Z,0
2017-02-09T02:00:41.237Z,0
2017-02-09T02:01:54.485Z,0
2017-02-09T02:03:07.733Z,0
2017-02-09T02:04:20.984Z,0
2017-02-09T02:05:34.234Z,0
2017-02-09T02:06:47.483Z,0
2017-02-09T02:08:00.733Z,0
2017-02-09T02:09:13.989Z,0
2017-02-09T02:10:26.971Z,0
2017-02-09T02:11:54.204Z,0
2017-02-09T02:13:07.452Z,0
2017-02-09T02:14:20.699Z,0
2017-02-09T02:15:34.146Z,0
2017-02-09T02:16:47.396Z,0
2017-02-09T02:18:00.643Z,0
2017-02-09T02:19:13.891Z,0
2017-02-09T02:20:26.869Z,0
2017-02-09T02:21:39.553Z,0
2017-02-09T02:22:52.803Z,0
2017-02-09T02:24:06.052Z,0
2017-02-09T02:25:19.299Z,0
2017-02-09T02:26:32.178Z,0
2017-02-09T02:27:45.424Z,0
2017-02-09T02:28:58.675Z,0
2017-02-09T02:30:11.924Z,0
2017-02-09T02:31:25.373Z,0
2017-02-09T02:32:38.627Z,0
2017-02-09T02:33:51.880Z,0
2017-02-09T02:35:05.139Z,0
2017-02-09T02:36:18.387Z,0
2017-02-09T02:37:45.817Z,0
2017-02-09T02:38:59.063Z,0
2017-02-09T02:40:11.767Z,0
2017-02-09T02:41:25.015Z,0
2017-02-09T02:42:52.245Z,0
2017-02-09T02:44:19.475Z,0
2017-02-09T02:45:32.725Z,0
2017-02-09T02:46:45.408Z,0
2017-02-09T02:47:58.864Z,0
2017-02-09T02:49:12.115Z,0
2017-02-09T02:50:25.364Z,0
2017-02-09T02:51:38.043Z,0
2017-02-09T02:52:51.318Z,0
2017-02-09T02:54:04.566Z,0
2017-02-09T02:55:17.819Z,0
2017-02-09T02:56:45.047Z,0
2017-02-09T02:57:58.494Z,0
2017-02-09T02:59:11.747Z,0
2017-02-09T03:00:24.994Z,0
2017-02-09T03:01:38.246Z,0
2017-02-09T03:02:51.497Z,0
2017-02-09T03:04:04.745Z,0
2017-02-09T03:05:17.865Z,0
2017-02-09T03:06:30.972Z,0
2017-02-09T03:07:44.079Z,0
2017-02-09T03:08:57.391Z,0
2017-02-09T03:10:10.511Z,0
2017-02-09T03:11:23.620Z,0
2017-02-09T03:14:03.849Z,0
2017-02-09T03:15:16.397Z,0
2017-02-09T03:16:29.508Z,0
2017-02-09T03:17:42.617Z,0
2017-02-09T03:18:55.929Z,0
2017-02-09T03:20:09.042Z,0
2017-02-09T03:21:21.597Z,0
2017-02-09T03:22:48.719Z,0
2017-02-09T03:24:01.831Z,0
2017-02-09T03:25:14.943Z,0
2017-02-09T03:26:28.054Z,0
2017-02-09T03:27:41.162Z,0
2017-02-09T03:28:54.270Z,0
2017-02-09T03:30:07.578Z,0
2017-02-09T03:31:20.130Z,0
2017-02-09T03:32:33.239Z,0
2017-02-09T03:33:46.349Z,0
2017-02-09T03:34:59.097Z,0
2017-02-09T03:36:11.646Z,0
2017-02-09T03:37:24.755Z,0
2017-02-09T03:38:37.864Z,0
2017-02-09T03:39:50.975Z,0
2017-02-09T03:41:04.381Z,0
2017-02-09T03:42:31.502Z,0
2017-02-09T03:43:44.610Z,0
2017-02-09T03:45:11.726Z,0
2017-02-09T03:46:24.837Z,0
2017-02-09T03:47:37.947Z,0
2017-02-09T03:48:51.058Z,0
2017-02-09T03:50:04.167Z,0
2017-02-09T03:51:17.500Z,0
2017-02-09T03:52:30.609Z,0
2017-02-09T03:53:43.722Z,0
2017-02-09T03:54:55.712Z,0
2017-02-09T03:56:08.822Z,0
2017-02-09T03:57:21.932Z,0
2017-02-09T03:58:35.045Z,0
2017-02-09T03:59:48.159Z,0
2017-02-09T04:01:01.267Z,0
2017-02-09T04:02:14.576Z,0
2017-02-09T04:03:27.686Z,0
2017-02-09T04:04:40.794Z,0
2017-02-09T04:05:53.900Z,0
2017-02-09T04:07:05.891Z,0
2017-02-09T04:08:19.201Z,0
2017-02-09T04:09:32.315Z,0
2017-02-09T04:10:45.425Z,0
2017-02-09T04:11:58.539Z,0
2017-02-09T04:13:11.951Z,0
2017-02-09T04:14:25.065Z,0
2017-02-09T04:15:38.171Z,0
2017-02-09T04:16:51.283Z,0
2017-02-09T04:18:04.391Z,0
2017-02-09T04:19:17.501Z,0
2017-02-09T04:20:30.612Z,0
2017-02-09T04:21:43.728Z,0
2017-02-09T04:22:56.838Z,0
2017-02-09T04:24:10.149Z,0
2017-02-09T04:25:37.268Z,0
2017-02-09T04:26:50.377Z,0
2017-02-09T04:28:02.928Z,0
2017-02-09T04:29:16.036Z,0
2017-02-09T04:30:29.145Z,0
2017-02-09T04:31:42.263Z,0
2017-02-09T04:32:55.372Z,0
2017-02-09T04:34:07.941Z,0
2017-02-09T04:35:21.349Z,0
2017-02-09T04:36:34.463Z,0
2017-02-09T04:37:47.573Z,0
2017-02-09T04:39:00.682Z,0
2017-02-09T04:40:13.234Z,0
2017-02-09T04:41:26.341Z,0
2017-02-09T04:42:39.453Z,0
2017-02-09T04:43:52.563Z,0
2017-02-09T04:45:05.674Z,0
2017-02-09T04:46:18.426Z,0
2017-02-09T04:47:31.533Z,0
2017-02-09T04:48:44.641Z,0
2017-02-09T04:49:57.750Z,0
2017-02-09T04:51:10.599Z,0
2017-02-09T04:52:23.708Z,0
2017-02-09T04:53:36.817Z,0
2017-02-09T04:54:49.925Z,0
2017-02-09T04:56:02.474Z,0
2017-02-09T04:57:15.883Z,0
2017-02-09T04:58:28.991Z,0
2017-02-09T04:59:42.105Z,0
2017-02-09T05:00:55.220Z,0
2017-02-09T05:02:07.968Z,0
2017-02-09T05:03:20.519Z,0
2017-02-09T05:04:33.631Z,0
2017-02-09T05:05:46.743Z,0
2017-02-09T05:06:59.851Z,0
2017-02-09T05:08:12.607Z,0
2017-02-09T05:09:25.725Z,0
2017-02-09T05:10:38.839Z,0
2017-02-09T05:11:51.948Z,0
2017-02-09T05:13:05.256Z,0
2017-02-09T05:14:18.370Z,0
2017-02-09T05:15:31.482Z,0
2017-02-09T05:16:44.590Z,0
2017-02-09T05:17:57.698Z,0
2017-02-09T05:19:11.107Z,0
2017-02-09T05:22:05.556Z,0
2017-02-09T05:23:18.802Z,0
2017-02-09T05:24:32.352Z,0
2017-02-09T05:25:45.597Z,0
2017-02-09T05:26:57.704Z,0
2017-02-09T05:28:10.417Z,0
2017-02-09T05:29:23.667Z,0
2017-02-09T05:30:36.918Z,0
2017-02-09T05:31:50.170Z,0
2017-02-09T05:33:03.418Z,0
2017-02-09T05:34:16.665Z,0
2017-02-09T05:35:30.215Z,0
2017-02-09T05:36:43.463Z,0
2017-02-09T05:37:56.712Z,0
2017-02-09T05:39:09.966Z,0
2017-02-09T05:40:23.515Z,0
2017-02-09T05:41:36.767Z,0
2017-02-09T05:42:50.017Z,0
2017-02-09T05:44:02.697Z,0
2017-02-09T05:45:15.945Z,0
2017-02-09T05:46:29.490Z,0
2017-02-09T05:49:09.966Z,0
2017-02-09T05:50:23.212Z,0
2017-02-09T05:51:36.661Z,0
2017-02-09T05:52:49.906Z,0
2017-02-09T05:54:02.589Z,0
2017-02-09T05:55:15.833Z,0
2017-02-09T05:56:29.283Z,0
2017-02-09T05:57:42.531Z,0
2017-02-09T05:58:55.776Z,0
2017-02-09T06:00:09.026Z,0
2017-02-09T06:01:21.709Z,0
2017-02-09T06:02:35.155Z,0
2017-02-09T06:03:48.399Z,0
2017-02-09T06:05:01.521Z,0
2017-02-09T06:06:14.073Z,0
2017-02-09T06:07:27.480Z,0
2017-02-09T06:08:40.588Z,0
2017-02-09T06:09:53.739Z,0
2017-02-09T06:11:06.847Z,0
2017-02-09T06:12:19.400Z,0
2017-02-09T06:13:32.508Z,0
2017-02-09T06:14:45.621Z,0
2017-02-09T06:15:58.196Z,0
2017-02-09T06:17:11.303Z,0
2017-02-09T06:18:24.610Z,0
2017-02-09T06:19:37.718Z,0
2017-02-09T06:20:50.830Z,0
2017-02-09T06:22:02.820Z,0
2017-02-09T06:23:30.139Z,0
2017-02-09T06:24:43.247Z,0
2017-02-09T06:25:56.357Z,0
2017-02-09T06:27:08.905Z,0
2017-02-09T06:28:22.015Z,0
2017-02-09T06:29:35.322Z,0
2017-02-09T06:30:48.437Z,0
2017-02-09T06:32:00.987Z,0
2017-02-09T06:33:14.096Z,0
2017-02-09T06:34:27.404Z,0
2017-02-09T06:35:40.516Z,0
2017-02-09T06:36:53.624Z,0
2017-02-09T06:38:06.744Z,0
2017-02-09T06:39:19.853Z,0
2017-02-09T06:40:32.967Z,0
2017-02-09T06:43:27.202Z,0
2017-02-09T06:44:40.312Z,0
2017-02-09T06:45:53.720Z,0
2017-02-09T06:47:06.828Z,0
2017-02-09T06:48:19.938Z,0
2017-02-09T06:49:33.051Z,0
2017-02-09T06:51:00.283Z,0
2017-02-09T06:52:12.964Z,0
2017-02-09T06:53:26.209Z,0
2017-02-09T06:57:44.760Z,0
2017-02-09T06:58:58.006Z,0
2017-02-09T07:00:11.252Z,0
2017-02-09T07:01:24.497Z,0
2017-02-09T07:02:37.754Z,0
2017-02-09T07:03:51.197Z,0
2017-02-09T07:05:04.445Z,0
2017-02-09T07:06:17.696Z,0
2017-02-09T07:07:30.943Z,0
2017-02-09T07:08:44.392Z,0
2017-02-09T07:09:57.637Z,0
2017-02-09T07:11:10.889Z,0
2017-02-09T07:12:24.136Z,0
2017-02-09T07:13:37.386Z,0
2017-02-09T07:14:50.932Z,0
2017-02-09T07:16:04.178Z,0
2017-02-09T07:17:17.424Z,0
2017-02-09T07:18:30.668Z,0
2017-02-09T07:19:44.216Z,0
2017-02-09T07:20:57.462Z,0
2017-02-09T07:22:10.145Z,0
2017-02-09T07:23:23.393Z,0
2017-02-09T07:24:36.639Z,0
2017-02-09T07:25:49.885Z,0
2017-02-09T07:27:03.133Z,0
2017-02-09T07:28:15.814Z,0
2017-02-09T07:29:29.058Z,0
2017-02-09T07:30:42.509Z,0
2017-02-09T07:31:55.188Z,0
2017-02-09T07:33:07.298Z,0
2017-02-09T07:34:20.548Z,0
2017-02-09T07:35:33.793Z,0
2017-02-09T07:36:47.342Z,0
2017-02-09T07:38:00.592Z,0
2017-02-09T07:39:13.269Z,0
2017-02-09T07:40:26.514Z,0
2017-02-09T07:41:39.758Z,0
2017-02-09T07:42:53.005Z,0
2017-02-09T07:44:06.254Z,0
2017-02-09T07:45:19.501Z,0
2017-02-09T07:46:32.749Z,0
2017-02-09T07:47:46.295Z,0
2017-02-09T07:48:59.541Z,0
2017-02-09T07:50:12.223Z,0
2017-02-09T07:51:24.918Z,0
2017-02-09T07:52:38.466Z,0
2017-02-09T07:53:51.717Z,0
2017-02-09T07:55:04.965Z,0
2017-02-09T07:56:18.237Z,0
2017-02-09T07:57:45.774Z,0
2017-02-09T07:59:13.005Z,0
2017-02-09T08:00:26.252Z,0
2017-02-09T08:01:38.931Z,0
2017-02-09T08:02:52.474Z,0
2017-02-09T08:04:05.721Z,0
2017-02-09T08:05:18.969Z,0
2017-02-09T08:06:31.654Z,0
2017-02-09T08:07:44.899Z,0
2017-02-09T08:08:58.346Z,0
2017-02-09T08:10:11.596Z,0
2017-02-09T08:11:24.842Z,0
2017-02-09T08:12:37.522Z,0
2017-02-09T08:13:50.970Z,0
2017-02-09T08:15:03.649Z,0
2017-02-09T08:16:15.761Z,0
2017-02-09T08:17:29.012Z,0
2017-02-09T08:18:41.689Z,0
2017-02-09T08:19:55.136Z,0
2017-02-09T08:21:08.383Z,0
2017-02-09T08:22:20.494Z,0
2017-02-09T08:23:33.743Z,0
2017-02-09T08:24:46.422Z,0
2017-02-09T08:25:59.670Z,0
2017-02-09T08:27:26.894Z,0
2017-02-09T08:28:40.177Z,0
2017-02-09T08:30:07.446Z,0
2017-02-09T08:31:20.691Z,0
2017-02-09T08:32:33.937Z,0
2017-02-09T08:33:47.184Z,0
2017-02-09T08:35:00.429Z,0
2017-02-09T08:36:13.678Z,0
2017-02-09T08:37:26.960Z,0
2017-02-09T08:38:40.236Z,0
2017-02-09T08:39:53.682Z,0
2017-02-09T08:41:06.936Z,0
2017-02-09T08:42:20.188Z,0
2017-02-09T08:43:33.434Z,0
2017-02-09T08:44:46.113Z,0
2017-02-09T08:45:59.563Z,0
2017-02-09T08:47:12.812Z,0
2017-02-09T08:48:26.055Z,0
2017-02-09T08:49:39.304Z,0
2017-02-09T08:50:52.182Z,0
2017-02-09T08:52:04.856Z,0
2017-02-09T08:53:17.536Z,0
2017-02-09T08:54:30.779Z,0
2017-02-09T08:55:43.460Z,0
2017-02-09T08:56:57.003Z,0
2017-02-09T08:58:09.690Z,0
2017-02-09T08:59:21.802Z,0
2017-02-09T09:00:34.484Z,0
2017-02-09T09:01:48.030Z,0
2017-02-09T09:03:01.279Z,0
2017-02-09T09:04:14.540Z,0
2017-02-09T09:05:27.217Z,0
2017-02-09T09:06:40.465Z,0
2017-02-09T09:07:54.010Z,0
2017-02-09T09:09:07.259Z,0
2017-02-09T09:10:20.503Z,0
2017-02-09T09:11:33.748Z,0
2017-02-09T09:12:46.433Z,0
2017-02-09T09:13:59.683Z,0
2017-02-09T09:15:12.931Z,0
2017-02-09T09:16:25.041Z,0
2017-02-09T09:17:37.722Z,0
2017-02-09T09:18:49.836Z,0
2017-02-09T09:20:03.084Z,0
2017-02-09T09:21:16.336Z,0
2017-02-09T09:22:29.590Z,0
2017-02-09T09:23:42.471Z,0
2017-02-09T09:24:55.718Z,0
2017-02-09T09:26:08.964Z,0
2017-02-09T09:27:21.637Z,0
2017-02-09T09:28:48.869Z,0
2017-02-09T09:30:02.116Z,5
2017-02-09T09:31:15.391Z,5
2017-02-09T09:32:28.633Z,5
2017-02-09T09:33:41.323Z,5
2017-02-09T09:34:54.000Z,5
2017-02-09T09:36:07.247Z,5
2017-02-09T09:37:19.925Z,5
2017-02-09T09:38:47.152Z,5
2017-02-09T09:40:00.600Z,5
2017-02-09T09:41:13.289Z,5
2017-02-09T09:42:25.972Z,5
2017-02-09T09:43:39.221Z,5
2017-02-09T09:44:52.771Z,5
2017-02-09T09:46:06.032Z,5
2017-02-09T09:47:18.746Z,5
2017-02-09T09:48:31.995Z,5
2017-02-09T09:49:44.675Z,5
2017-02-09T09:50:58.226Z,5
2017-02-09T09:52:11.473Z,5
2017-02-09T09:53:24.722Z,5
2017-02-09T09:54:37.398Z,5
2017-02-09T09:55:50.943Z,5
2017-02-09T09:57:04.192Z,5
2017-02-09T09:58:17.444Z,5
2017-02-09T09:59:30.693Z,5
2017-02-09T10:00:43.371Z,5
2017-02-09T10:02:10.801Z,5
2017-02-09T10:03:24.051Z,5
2017-02-09T10:04:36.736Z,5
2017-02-09T10:05:49.415Z,5
2017-02-09T10:07:16.645Z,5
2017-02-09T10:08:29.890Z,5
2017-02-09T10:09:43.136Z,5
2017-02-09T10:10:56.402Z,5
2017-02-09T10:12:09.851Z,5
2017-02-09T10:13:22.529Z,5
2017-02-09T10:14:35.211Z,5
2017-02-09T10:15:48.461Z,5
2017-02-09T10:18:29.142Z,5
2017-02-09T10:19:42.386Z,5
2017-02-09T10:20:55.070Z,5
2017-02-09T10:22:08.329Z,5
2017-02-09T10:23:21.574Z,5
2017-02-09T10:24:34.891Z,5
2017-02-09T10:25:47.585Z,5
2017-02-09T10:27:00.259Z,5
2017-02-09T10:28:12.569Z,5
2017-02-09T10:29:24.680Z,5
2017-02-09T10:30:37.357Z,5
2017-02-09T10:31:50.599Z,5
2017-02-09T10:33:03.282Z,5
2017-02-09T10:34:16.539Z,5
2017-02-09T10:35:29.657Z,5
2017-02-09T10:36:42.205Z,5
2017-02-09T10:38:09.524Z,10
2017-02-09T10:39:22.635Z,10
2017-02-09T10:40:35.746Z,10
2017-02-09T10:41:48.854Z,10
2017-02-09T10:43:01.965Z,10
2017-02-09T10:44:15.075Z,10
2017-02-09T10:45:28.180Z,10
2017-02-09T10:46:41.293Z,10
2017-02-09T10:47:54.402Z,10
2017-02-09T10:49:07.708Z,10
2017-02-09T10:50:20.257Z,10
2017-02-09T10:51:33.366Z,10
2017-02-09T10:52:46.475Z,10
2017-02-09T10:53:59.024Z,10
2017-02-09T10:55:11.312Z,10
2017-02-09T10:56:24.427Z,10
2017-02-09T10:57:37.537Z,10
2017-02-09T10:58:50.093Z,10
2017-02-09T11:00:02.841Z,10
2017-02-09T11:01:15.390Z,10
2017-02-09T11:02:27.942Z,10
2017-02-09T11:03:41.064Z,10
2017-02-09T11:04:54.173Z,10
2017-02-09T11:06:07.586Z,10
2017-02-09T11:07:20.726Z,10
2017-02-09T11:08:33.303Z,10
2017-02-09T11:09:46.438Z,10
2017-02-09T11:11:12.765Z,10
2017-02-09T11:12:25.964Z,10
2017-02-09T11:13:38.676Z,10
2017-02-09T11:14:51.977Z,10
2017-02-09T11:16:05.289Z,10
2017-02-09T11:17:18.647Z,10
2017-02-09T11:18:31.958Z,10
2017-02-09T11:19:45.127Z,15
2017-02-09T11:20:58.342Z,10
2017-02-09T11:22:25.626Z,10
2017-02-09T11:23:38.940Z,10
2017-02-09T11:24:52.295Z,10
2017-02-09T11:26:05.156Z,10
2017-02-09T11:27:31.850Z,15
2017-02-09T11:28:45.211Z,15
2017-02-09T11:29:58.613Z,15
2017-02-09T11:31:25.216Z,15
2017-02-09T11:32:52.337Z,15
2017-02-09T11:34:05.442Z,15
2017-02-09T11:35:17.434Z,15
2017-02-09T11:36:30.543Z,15
2017-02-09T11:37:43.859Z,15
2017-02-09T11:38:56.977Z,15
2017-02-09T11:40:10.088Z,15
2017-02-09T11:41:23.203Z,15
2017-02-09T11:42:36.317Z,15
2017-02-09T11:43:49.429Z,15
2017-02-09T11:45:02.544Z,15
2017-02-09T11:46:15.096Z,15
2017-02-09T11:47:28.202Z,15
2017-02-09T11:48:41.313Z,15
2017-02-09T11:49:54.422Z,15
2017-02-09T11:51:06.420Z,15
2017-02-09T11:52:18.967Z,15
2017-02-09T11:53:32.075Z,15
2017-02-09T11:54:45.196Z,15
2017-02-09T11:55:58.303Z,15
2017-02-09T11:57:10.852Z,15
2017-02-09T11:58:23.403Z,15
2017-02-09T11:59:35.959Z,15
2017-02-09T12:00:49.076Z,15
2017-02-09T12:03:29.313Z,20
2017-02-09T12:04:43.115Z,20
2017-02-09T12:05:56.362Z,20
2017-02-09T12:07:09.622Z,20
2017-02-09T12:08:21.735Z,20
2017-02-09T12:09:34.984Z,20
2017-02-09T12:10:48.239Z,20
2017-02-09T12:12:01.490Z,20
2017-02-09T12:13:14.745Z,20
2017-02-09T12:14:41.984Z,20
2017-02-09T12:15:55.254Z,20
2017-02-09T12:17:08.502Z,20
2017-02-09T12:18:21.179Z,20
2017-02-09T12:19:48.411Z,20
2017-02-09T12:21:01.657Z,20
2017-02-09T12:22:14.339Z,20
2017-02-09T12:23:27.597Z,20
2017-02-09T12:24:40.849Z,20
2017-02-09T12:25:54.096Z,20
2017-02-09T12:27:07.348Z,20
2017-02-09T12:28:20.036Z,20
2017-02-09T12:29:33.309Z,20
2017-02-09T12:30:46.557Z,20
2017-02-09T12:31:59.239Z,20
2017-02-09T12:33:12.487Z,20
2017-02-09T12:34:25.738Z,20
2017-02-09T12:35:38.992Z,25
2017-02-09T12:36:52.440Z,25
2017-02-09T12:38:05.695Z,25
2017-02-09T12:39:17.241Z,25
2017-02-09T12:40:30.493Z,25
2017-02-09T12:41:43.947Z,30
2017-02-09T12:42:57.200Z,35
2017-02-09T12:44:09.880Z,35
2017-02-09T12:45:22.563Z,40
2017-02-09T12:46:35.813Z,40
2017-02-09T12:47:48.699Z,45
2017-02-09T12:49:15.938Z,50
2017-02-09T12:50:29.193Z,50
2017-02-09T12:51:42.447Z,40
2017-02-09T12:52:55.902Z,35
2017-02-09T12:54:09.146Z,60
2017-02-09T12:55:21.832Z,60
2017-02-09T12:56:35.087Z,55
2017-02-09T12:57:48.645Z,55
2017-02-09T12:59:01.902Z,60
2017-02-09T13:00:14.589Z,60
2017-02-09T13:01:41.260Z,65
2017-02-09T13:02:53.371Z,65
2017-02-09T13:04:06.649Z,65
2017-02-09T13:05:19.339Z,65
2017-02-09T13:06:32.691Z,65
2017-02-09T13:07:46.031Z,70
2017-02-09T13:08:59.397Z,70
2017-02-09T13:10:11.587Z,70
2017-02-09T13:11:24.896Z,70
2017-02-09T13:12:38.216Z,70
2017-02-09T13:13:51.494Z,70
2017-02-09T13:15:04.787Z,70
2017-02-09T13:16:17.525Z,75
2017-02-09T13:17:30.785Z,70
2017-02-09T13:18:44.036Z,70
2017-02-09T13:19:56.721Z,75
2017-02-09T13:21:09.973Z,75
2017-02-09T13:22:23.224Z,75
2017-02-09T13:23:35.910Z,75
2017-02-09T13:24:49.164Z,50
2017-02-09T13:26:16.401Z,45
2017-02-09T13:27:29.658Z,30
2017-02-09T13:28:42.921Z,40
2017-02-09T13:29:56.173Z,80
2017-02-09T13:31:09.433Z,80
2017-02-09T13:32:22.116Z,80
2017-02-09T13:33:35.373Z,80
2017-02-09T13:35:02.610Z,75
2017-02-09T13:36:15.298Z,75
2017-02-09T13:37:28.554Z,35
2017-02-09T13:38:41.811Z,55
2017-02-09T13:39:55.067Z,90
2017-02-09T13:41:07.952Z,90
2017-02-09T13:42:21.207Z,85
2017-02-09T13:43:33.890Z,90
2017-02-09T13:46:14.014Z,90
2017-02-09T13:47:27.267Z,25
2017-02-09T13:48:40.520Z,40
2017-02-09T13:49:53.775Z,65
2017-02-09T13:51:06.458Z,95
2017-02-09T13:52:19.152Z,35
2017-02-09T13:53:32.405Z,25
2017-02-09T13:54:45.095Z,25
2017-02-09T13:55:58.355Z,35
2017-02-09T13:57:11.913Z,90
2017-02-09T13:58:24.039Z,55
2017-02-09T13:59:50.141Z,35
2017-02-09T14:01:02.828Z,35
2017-02-09T14:02:15.147Z,95
2017-02-09T14:03:28.403Z,95
2017-02-09T14:04:55.639Z,95
2017-02-09T14:06:08.895Z,90
2017-02-09T14:07:21.579Z,90
2017-02-09T14:10:02.073Z,90
2017-02-09T14:11:15.327Z,90
2017-02-09T14:12:28.582Z,85
2017-02-09T14:13:41.871Z,85
2017-02-09T14:14:55.132Z,85
2017-02-09T14:16:08.405Z,85
2017-02-09T14:17:22.491Z,85
2017-02-09T14:18:35.749Z,90
2017-02-09T14:20:02.890Z,90
2017-02-09T14:21:15.458Z,95
2017-02-09T14:22:28.784Z,40
2017-02-09T14:23:41.911Z,80
2017-02-09T14:24:55.031Z,85
2017-02-09T14:26:08.153Z,100
2017-02-09T14:27:21.279Z,45
2017-02-09T14:28:34.601Z,35
2017-02-09T14:29:47.723Z,30
2017-02-09T14:31:00.292Z,35
2017-02-09T14:32:12.869Z,85
2017-02-09T14:33:25.450Z,85
2017-02-09T14:34:38.597Z,35
2017-02-09T14:35:51.740Z,40
2017-02-09T14:37:04.876Z,45
2017-02-09T14:38:17.994Z,85
2017-02-09T14:39:45.421Z,85
2017-02-09T14:40:57.976Z,85
2017-02-09T14:42:09.974Z,85
2017-02-09T14:43:23.086Z,85
2017-02-09T14:44:36.203Z,60
2017-02-09T14:45:49.335Z,85
2017-02-09T14:47:02.473Z,35
2017-02-09T14:48:15.588Z,80
2017-02-09T14:49:29.002Z,40
2017-02-09T14:50:42.133Z,40
2017-02-09T14:51:55.253Z,85
2017-02-09T14:53:22.378Z,75
2017-02-09T14:56:16.072Z,75
2017-02-09T14:57:29.184Z,85
2017-02-09T14:58:42.296Z,85
2017-02-09T15:00:09.422Z,85
2017-02-09T15:01:22.008Z,85
2017-02-09T15:02:35.132Z,65
2017-02-09T15:03:48.252Z,70
2017-02-09T15:05:01.802Z,75
2017-02-09T15:06:15.056Z,80
2017-02-09T15:07:28.310Z,80
2017-02-09T15:08:41.572Z,75
2017-02-09T15:09:55.126Z,80
2017-02-09T15:11:08.381Z,80
2017-02-09T15:12:21.064Z,80
2017-02-09T15:13:34.317Z,75
2017-02-09T15:14:47.775Z,50
2017-02-09T15:16:01.231Z,80
2017-02-09T15:17:13.924Z,80
2017-02-09T15:18:27.180Z,80
2017-02-09T15:19:40.437Z,80
2017-02-09T15:20:53.895Z,75
2017-02-09T15:22:07.148Z,70
2017-02-09T15:23:20.397Z,70
2017-02-09T15:24:33.649Z,70
2017-02-09T15:25:46.333Z,55
2017-02-09T15:26:59.884Z,55
2017-02-09T15:28:12.566Z,70
2017-02-09T15:29:25.255Z,65
2017-02-09T15:30:38.507Z,65
2017-02-09T15:31:51.196Z,65
2017-02-09T15:33:04.447Z,65
2017-02-09T15:34:31.117Z,55
2017-02-09T15:35:44.371Z,60
2017-02-09T15:37:11.611Z,60
2017-02-09T15:38:24.468Z,55
2017-02-09T15:39:37.729Z,55
2017-02-09T15:40:50.984Z,55
2017-02-09T15:42:04.241Z,55
2017-02-09T15:43:17.494Z,55
2017-02-09T15:44:30.749Z,50
2017-02-09T15:45:44.003Z,50
2017-02-09T15:46:57.260Z,45
2017-02-09T15:48:09.947Z,50
2017-02-09T15:49:23.069Z,50
2017-02-09T15:50:36.186Z,50
2017-02-09T15:51:49.299Z,50
2017-02-09T15:53:02.413Z,50
2017-02-09T15:54:14.970Z,50
2017-02-09T15:55:26.967Z,45
2017-02-09T15:56:40.082Z,45
2017-02-09T15:57:53.196Z,45
2017-02-09T15:59:06.310Z,45
2017-02-09T16:00:33.436Z,45
2017-02-09T16:01:46.551Z,45
2017-02-09T16:02:59.666Z,45
2017-02-09T16:04:12.781Z,45
2017-02-09T16:05:25.898Z,45
2017-02-09T16:06:38.458Z,45
2017-02-09T16:07:51.574Z,45
2017-02-09T16:09:04.913Z,45
2017-02-09T16:10:32.062Z,50
2017-02-09T16:11:45.410Z,50
2017-02-09T16:12:58.528Z,30
2017-02-09T16:14:10.522Z,25
2017-02-09T16:15:23.078Z,25
2017-02-09T16:16:36.189Z,40
2017-02-09T16:17:49.303Z,30
2017-02-09T16:19:02.415Z,45
2017-02-09T16:20:29.285Z,40
2017-02-09T16:21:42.398Z,40
2017-02-09T16:22:55.514Z,40
2017-02-09T16:24:22.643Z,40
2017-02-09T16:25:35.957Z,40
2017-02-09T16:26:49.072Z,40
2017-02-09T16:28:01.627Z,40
2017-02-09T16:29:14.184Z,40
2017-02-09T16:30:27.296Z,40
2017-02-09T16:31:40.409Z,40
2017-02-09T16:32:53.524Z,40
2017-02-09T16:34:06.741Z,40
2017-02-09T16:35:19.997Z,40
2017-02-09T16:36:33.453Z,25
2017-02-09T16:37:46.708Z,25
2017-02-09T16:38:59.959Z,30
2017-02-09T16:40:27.194Z,40
2017-02-09T16:41:54.728Z,35
2017-02-09T16:43:07.416Z,40
2017-02-09T16:44:20.668Z,30
2017-02-09T16:45:33.923Z,35
2017-02-09T16:46:46.906Z,30
2017-02-09T16:48:00.156Z,40
2017-02-09T16:49:13.410Z,35
2017-02-09T16:50:26.660Z,40
2017-02-09T16:51:39.910Z,45
2017-02-09T16:52:52.594Z,45
2017-02-09T16:54:05.849Z,50
2017-02-09T16:55:32.516Z,45
2017-02-09T16:56:45.771Z,40
2017-02-09T16:59:26.269Z,50
2017-02-09T17:00:39.351Z,60
2017-02-09T17:01:52.608Z,55
2017-02-09T17:03:05.862Z,50
2017-02-09T17:04:19.109Z,45
2017-02-09T17:05:32.360Z,45
2017-02-09T17:06:59.808Z,50
2017-02-09T17:08:27.043Z,40
2017-02-09T17:09:40.296Z,40
2017-02-09T17:10:53.547Z,50
2017-02-09T17:13:33.712Z,40
2017-02-09T17:14:46.969Z,40
2017-02-09T17:16:00.217Z,40
2017-02-09T17:17:13.476Z,40
2017-02-09T17:18:25.597Z,40
2017-02-09T17:19:38.850Z,45
2017-02-09T17:22:18.969Z,35
2017-02-09T17:23:32.215Z,40
2017-02-09T17:24:45.468Z,40
2017-02-09T17:25:58.719Z,40
2017-02-09T17:27:11.975Z,40
2017-02-09T17:28:24.657Z,45
2017-02-09T17:29:37.906Z,45
2017-02-09T17:30:50.593Z,45
2017-02-09T17:32:03.313Z,45
2017-02-09T17:33:16.566Z,55
2017-02-09T17:34:29.821Z,45
2017-02-09T17:35:42.503Z,40
2017-02-09T17:36:55.752Z,40
2017-02-09T17:38:09.004Z,40
2017-02-09T17:39:36.240Z,40
2017-02-09T17:40:48.924Z,40
2017-02-09T17:42:02.173Z,40
2017-02-09T17:43:29.407Z,40
2017-02-09T17:44:42.660Z,40
2017-02-09T17:45:55.907Z,40
2017-02-09T17:47:09.165Z,40
2017-02-09T17:48:21.851Z,40
2017-02-09T17:49:35.105Z,40
2017-02-09T17:50:48.357Z,40
2017-02-09T17:52:01.605Z,40
2017-02-09T17:53:14.851Z,50
2017-02-09T17:54:28.097Z,40
2017-02-09T17:55:41.348Z,45
2017-02-09T17:56:54.595Z,40
2017-02-09T17:58:07.840Z,40
2017-02-09T17:59:19.958Z,40
2017-02-09T18:00:33.211Z,50
2017-02-09T18:01:46.464Z,50
2017-02-09T18:02:59.723Z,50
2017-02-09T18:04:13.176Z,45
2017-02-09T18:05:26.429Z,50
2017-02-09T18:06:39.713Z,50
2017-02-09T18:07:52.966Z,35
2017-02-09T18:09:06.226Z,35
2017-02-09T18:10:19.107Z,35
2017-02-09T18:11:46.365Z,35
2017-02-09T18:12:59.616Z,30
2017-02-09T18:14:12.870Z,30
2017-02-09T18:17:07.547Z,35
2017-02-09T18:18:20.242Z,35
2017-02-09T18:19:32.356Z,40
2017-02-09T18:20:45.605Z,35
2017-02-09T18:21:58.858Z,25